sensor_id;sensor_type;location;lat;lon;timestamp;P1;durP1;ratioP1;P2;durP2;ratioP2
12145;SDS011;6136;47.032;15.398;2022-07-23T00:01:04;7.68;;;6.88;;
12145;SDS011;6136;47.032;15.398;2022-07-23T00:03:33;8.98;;;6.75;;
12145;SDS011;6136;47.032;15.398;2022-07-23T00:06:07;8.93;;;6.95;;
12145;SDS011;6136;47.032;15.398;2022-07-23T00:08:47;7.65;;;6.72;;
12145;SDS011;6136;47.032;15.398;2022-07-23T00:11:28;8.00;;;7.20;;
12145;SDS011;6136;47.032;15.398;2022-07-23T00:14:01;8.00;;;7.20;;
12145;SDS011;6136;47.032;15.398;2022-07-23T00:16:29;8.73;;;7.20;;
12145;SDS011;6136;47.032;15.398;2022-07-23T00:18:57;9.43;;;7.20;;
12145;SDS011;6136;47.032;15.398;2022-07-23T00:21:28;9.02;;;8.05;;
12145;SDS011;6136;47.032;15.398;2022-07-23T00:23:56;9.27;;;7.82;;
12145;SDS011;6136;47.032;15.398;2022-07-23T00:26:24;12.90;;;7.72;;
12145;SDS011;6136;47.032;15.398;2022-07-23T00:28:54;9.13;;;7.38;;
12145;SDS011;6136;47.032;15.398;2022-07-23T00:31:22;11.43;;;8.65;;
12145;SDS011;6136;47.032;15.398;2022-07-23T00:33:50;8.48;;;7.60;;
12145;SDS011;6136;47.032;15.398;2022-07-23T00:36:19;8.77;;;7.18;;
12145;SDS011;6136;47.032;15.398;2022-07-23T00:38:47;8.75;;;7.20;;
12145;SDS011;6136;47.032;15.398;2022-07-23T00:41:15;7.82;;;7.03;;
12145;SDS011;6136;47.032;15.398;2022-07-23T00:43:43;10.98;;;7.55;;
12145;SDS011;6136;47.032;15.398;2022-07-23T00:46:13;8.38;;;7.53;;
12145;SDS011;6136;47.032;15.398;2022-07-23T00:48:41;10.02;;;7.95;;
12145;SDS011;6136;47.032;15.398;2022-07-23T00:51:09;10.73;;;7.70;;
12145;SDS011;6136;47.032;15.398;2022-07-23T00:53:37;10.80;;;8.52;;
12145;SDS011;6136;47.032;15.398;2022-07-23T00:56:05;8.10;;;7.28;;
12145;SDS011;6136;47.032;15.398;2022-07-23T00:58:35;10.18;;;7.97;;
12145;SDS011;6136;47.032;15.398;2022-07-23T01:01:03;7.93;;;7.13;;
12145;SDS011;6136;47.032;15.398;2022-07-23T01:03:33;10.25;;;8.05;;
12145;SDS011;6136;47.032;15.398;2022-07-23T01:06:01;8.15;;;7.35;;
12145;SDS011;6136;47.032;15.398;2022-07-23T01:08:29;9.25;;;8.07;;
12145;SDS011;6136;47.032;15.398;2022-07-23T01:10:57;9.13;;;7.78;;
12145;SDS011;6136;47.032;15.398;2022-07-23T01:13:26;9.25;;;8.27;;
12145;SDS011;6136;47.032;15.398;2022-07-23T01:15:54;8.80;;;7.60;;
12145;SDS011;6136;47.032;15.398;2022-07-23T01:18:22;10.57;;;7.53;;
12145;SDS011;6136;47.032;15.398;2022-07-23T01:20:52;8.13;;;7.43;;
12145;SDS011;6136;47.032;15.398;2022-07-23T01:23:21;8.32;;;7.50;;
12145;SDS011;6136;47.032;15.398;2022-07-23T01:25:54;8.73;;;7.82;;
12145;SDS011;6136;47.032;15.398;2022-07-23T01:28:25;9.25;;;6.32;;
12145;SDS011;6136;47.032;15.398;2022-07-23T01:30:55;8.48;;;7.68;;
12145;SDS011;6136;47.032;15.398;2022-07-23T01:33:23;9.70;;;8.73;;
12145;SDS011;6136;47.032;15.398;2022-07-23T01:35:52;11.38;;;9.38;;
12145;SDS011;6136;47.032;15.398;2022-07-23T01:38:24;9.82;;;8.85;;
12145;SDS011;6136;47.032;15.398;2022-07-23T01:40:53;8.75;;;7.95;;
12145;SDS011;6136;47.032;15.398;2022-07-23T01:43:27;8.27;;;7.47;;
12145;SDS011;6136;47.032;15.398;2022-07-23T01:45:55;9.98;;;8.02;;
12145;SDS011;6136;47.032;15.398;2022-07-23T01:48:27;8.57;;;7.75;;
12145;SDS011;6136;47.032;15.398;2022-07-23T01:51:24;8.15;;;7.45;;
12145;SDS011;6136;47.032;15.398;2022-07-23T01:54:05;8.48;;;7.57;;
12145;SDS011;6136;47.032;15.398;2022-07-23T01:56:33;8.32;;;7.50;;
12145;SDS011;6136;47.032;15.398;2022-07-23T01:59:01;13.57;;;8.15;;
12145;SDS011;6136;47.032;15.398;2022-07-23T02:01:30;9.15;;;7.70;;
12145;SDS011;6136;47.032;15.398;2022-07-23T02:03:58;8.45;;;7.35;;
12145;SDS011;6136;47.032;15.398;2022-07-23T02:06:26;10.45;;;7.90;;
12145;SDS011;6136;47.032;15.398;2022-07-23T02:08:54;8.82;;;8.02;;
12145;SDS011;6136;47.032;15.398;2022-07-23T02:11:24;8.90;;;8.00;;
12145;SDS011;6136;47.032;15.398;2022-07-23T02:13:52;11.52;;;8.15;;
12145;SDS011;6136;47.032;15.398;2022-07-23T02:16:20;8.45;;;7.65;;
12145;SDS011;6136;47.032;15.398;2022-07-23T02:18:48;12.48;;;8.10;;
12145;SDS011;6136;47.032;15.398;2022-07-23T02:21:17;8.50;;;7.70;;
12145;SDS011;6136;47.032;15.398;2022-07-23T02:23:45;9.73;;;8.15;;
12145;SDS011;6136;47.032;15.398;2022-07-23T02:26:13;8.80;;;7.90;;
12145;SDS011;6136;47.032;15.398;2022-07-23T02:28:48;7.93;;;7.13;;
12145;SDS011;6136;47.032;15.398;2022-07-23T02:31:16;9.70;;;8.35;;
12145;SDS011;6136;47.032;15.398;2022-07-23T02:33:45;10.70;;;9.57;;
12145;SDS011;6136;47.032;15.398;2022-07-23T02:36:15;10.85;;;9.82;;
12145;SDS011;6136;47.032;15.398;2022-07-23T02:38:43;10.85;;;9.82;;
12145;SDS011;6136;47.032;15.398;2022-07-23T02:41:11;12.77;;;9.35;;
12145;SDS011;6136;47.032;15.398;2022-07-23T02:43:40;9.32;;;8.43;;
12145;SDS011;6136;47.032;15.398;2022-07-23T02:46:11;8.25;;;7.45;;
12145;SDS011;6136;47.032;15.398;2022-07-23T02:48:40;9.38;;;8.30;;
12145;SDS011;6136;47.032;15.398;2022-07-23T02:51:08;11.65;;;8.60;;
12145;SDS011;6136;47.032;15.398;2022-07-23T02:53:43;8.40;;;7.60;;
12145;SDS011;6136;47.032;15.398;2022-07-23T02:56:11;12.20;;;8.82;;
12145;SDS011;6136;47.032;15.398;2022-07-23T02:58:41;9.18;;;7.95;;
12145;SDS011;6136;47.032;15.398;2022-07-23T03:01:09;9.10;;;7.97;;
12145;SDS011;6136;47.032;15.398;2022-07-23T03:03:38;8.57;;;7.40;;
12145;SDS011;6136;47.032;15.398;2022-07-23T03:06:06;10.52;;;8.63;;
12145;SDS011;6136;47.032;15.398;2022-07-23T03:08:37;10.13;;;8.57;;
12145;SDS011;6136;47.032;15.398;2022-07-23T03:11:05;12.82;;;9.88;;
12145;SDS011;6136;47.032;15.398;2022-07-23T03:13:38;10.65;;;9.52;;
12145;SDS011;6136;47.032;15.398;2022-07-23T03:16:06;10.85;;;9.52;;
12145;SDS011;6136;47.032;15.398;2022-07-23T03:18:36;10.88;;;9.80;;
12145;SDS011;6136;47.032;15.398;2022-07-23T03:21:07;14.70;;;10.93;;
12145;SDS011;6136;47.032;15.398;2022-07-23T03:23:36;10.70;;;9.45;;
12145;SDS011;6136;47.032;15.398;2022-07-23T03:26:05;11.52;;;9.93;;
12145;SDS011;6136;47.032;15.398;2022-07-23T03:28:33;13.10;;;11.32;;
12145;SDS011;6136;47.032;15.398;2022-07-23T03:31:01;13.48;;;10.85;;
12145;SDS011;6136;47.032;15.398;2022-07-23T03:33:29;12.95;;;11.55;;
12145;SDS011;6136;47.032;15.398;2022-07-23T03:35:58;12.52;;;11.23;;
12145;SDS011;6136;47.032;15.398;2022-07-23T03:38:31;12.05;;;10.70;;
12145;SDS011;6136;47.032;15.398;2022-07-23T03:40:59;13.20;;;11.52;;
12145;SDS011;6136;47.032;15.398;2022-07-23T03:43:28;11.43;;;10.25;;
12145;SDS011;6136;47.032;15.398;2022-07-23T03:45:56;14.77;;;10.68;;
12145;SDS011;6136;47.032;15.398;2022-07-23T03:48:24;12.13;;;9.80;;
12145;SDS011;6136;47.032;15.398;2022-07-23T03:50:52;10.10;;;9.15;;
12145;SDS011;6136;47.032;15.398;2022-07-23T03:53:20;11.73;;;9.73;;
12145;SDS011;6136;47.032;15.398;2022-07-23T03:55:50;11.02;;;9.50;;
12145;SDS011;6136;47.032;15.398;2022-07-23T03:58:18;10.13;;;9.15;;
12145;SDS011;6136;47.032;15.398;2022-07-23T04:00:46;10.50;;;9.50;;
12145;SDS011;6136;47.032;15.398;2022-07-23T04:03:14;9.32;;;8.35;;
12145;SDS011;6136;47.032;15.398;2022-07-23T04:05:43;10.20;;;9.10;;
12145;SDS011;6136;47.032;15.398;2022-07-23T04:08:13;9.95;;;8.95;;
12145;SDS011;6136;47.032;15.398;2022-07-23T04:10:46;9.68;;;8.13;;
12145;SDS011;6136;47.032;15.398;2022-07-23T04:13:16;10.05;;;9.00;;
12145;SDS011;6136;47.032;15.398;2022-07-23T04:15:44;11.18;;;9.43;;
12145;SDS011;6136;47.032;15.398;2022-07-23T04:18:13;15.63;;;10.52;;
12145;SDS011;6136;47.032;15.398;2022-07-23T04:20:53;14.57;;;11.05;;
12145;SDS011;6136;47.032;15.398;2022-07-23T04:23:22;13.55;;;10.82;;
12145;SDS011;6136;47.032;15.398;2022-07-23T04:25:50;12.48;;;10.68;;
12145;SDS011;6136;47.032;15.398;2022-07-23T04:28:19;13.18;;;9.38;;
12145;SDS011;6136;47.032;15.398;2022-07-23T04:30:48;14.75;;;10.38;;
12145;SDS011;6136;47.032;15.398;2022-07-23T04:33:16;11.70;;;9.52;;
12145;SDS011;6136;47.032;15.398;2022-07-23T04:35:48;12.00;;;10.07;;
12145;SDS011;6136;47.032;15.398;2022-07-23T04:38:18;11.23;;;10.00;;
12145;SDS011;6136;47.032;15.398;2022-07-23T04:40:52;12.80;;;10.07;;
12145;SDS011;6136;47.032;15.398;2022-07-23T04:43:22;11.52;;;10.35;;
12145;SDS011;6136;47.032;15.398;2022-07-23T04:45:50;12.48;;;10.68;;
12145;SDS011;6136;47.032;15.398;2022-07-23T04:48:18;11.80;;;9.82;;
12145;SDS011;6136;47.032;15.398;2022-07-23T04:50:53;10.85;;;9.52;;
12145;SDS011;6136;47.032;15.398;2022-07-23T04:53:27;14.13;;;11.13;;
12145;SDS011;6136;47.032;15.398;2022-07-23T04:55:59;14.13;;;10.73;;
12145;SDS011;6136;47.032;15.398;2022-07-23T04:58:30;10.38;;;9.30;;
12145;SDS011;6136;47.032;15.398;2022-07-23T05:00:59;13.00;;;10.95;;
12145;SDS011;6136;47.032;15.398;2022-07-23T05:03:29;11.73;;;10.15;;
12145;SDS011;6136;47.032;15.398;2022-07-23T05:05:57;23.23;;;9.68;;
12145;SDS011;6136;47.032;15.398;2022-07-23T05:08:26;11.95;;;10.02;;
12145;SDS011;6136;47.032;15.398;2022-07-23T05:10:57;13.00;;;10.60;;
12145;SDS011;6136;47.032;15.398;2022-07-23T05:13:25;10.60;;;9.40;;
12145;SDS011;6136;47.032;15.398;2022-07-23T05:15:54;11.15;;;9.88;;
12145;SDS011;6136;47.032;15.398;2022-07-23T05:18:25;12.15;;;10.85;;
12145;SDS011;6136;47.032;15.398;2022-07-23T05:20:53;11.90;;;10.70;;
12145;SDS011;6136;47.032;15.398;2022-07-23T05:23:22;12.30;;;10.95;;
12145;SDS011;6136;47.032;15.398;2022-07-23T05:25:51;11.07;;;9.98;;
12145;SDS011;6136;47.032;15.398;2022-07-23T05:28:20;12.13;;;9.77;;
12145;SDS011;6136;47.032;15.398;2022-07-23T05:30:50;11.45;;;10.25;;
12145;SDS011;6136;47.032;15.398;2022-07-23T05:33:21;11.88;;;10.77;;
12145;SDS011;6136;47.032;15.398;2022-07-23T05:35:49;10.50;;;9.45;;
12145;SDS011;6136;47.032;15.398;2022-07-23T05:38:26;10.95;;;9.80;;
12145;SDS011;6136;47.032;15.398;2022-07-23T05:40:57;13.13;;;11.20;;
12145;SDS011;6136;47.032;15.398;2022-07-23T05:43:26;12.40;;;9.93;;
12145;SDS011;6136;47.032;15.398;2022-07-23T05:45:56;12.73;;;10.63;;
12145;SDS011;6136;47.032;15.398;2022-07-23T05:48:26;10.98;;;9.88;;
12145;SDS011;6136;47.032;15.398;2022-07-23T05:51:00;11.65;;;10.43;;
12145;SDS011;6136;47.032;15.398;2022-07-23T05:53:31;11.55;;;10.43;;
12145;SDS011;6136;47.032;15.398;2022-07-23T05:56:05;14.38;;;11.00;;
12145;SDS011;6136;47.032;15.398;2022-07-23T05:58:35;13.18;;;9.73;;
12145;SDS011;6136;47.032;15.398;2022-07-23T06:01:08;12.48;;;10.23;;
12145;SDS011;6136;47.032;15.398;2022-07-23T06:03:56;11.07;;;9.65;;
12145;SDS011;6136;47.032;15.398;2022-07-23T06:06:31;10.80;;;9.73;;
12145;SDS011;6136;47.032;15.398;2022-07-23T06:09:00;11.18;;;10.07;;
12145;SDS011;6136;47.032;15.398;2022-07-23T06:11:29;10.23;;;9.23;;
12145;SDS011;6136;47.032;15.398;2022-07-23T06:13:57;9.75;;;8.88;;
12145;SDS011;6136;47.032;15.398;2022-07-23T06:16:39;11.30;;;9.57;;
12145;SDS011;6136;47.032;15.398;2022-07-23T06:19:08;9.88;;;8.90;;
12145;SDS011;6136;47.032;15.398;2022-07-23T06:21:36;9.75;;;8.85;;
12145;SDS011;6136;47.032;15.398;2022-07-23T06:24:14;11.35;;;9.88;;
12145;SDS011;6136;47.032;15.398;2022-07-23T06:26:45;10.90;;;9.90;;
12145;SDS011;6136;47.032;15.398;2022-07-23T06:29:13;10.02;;;9.02;;
12145;SDS011;6136;47.032;15.398;2022-07-23T06:31:41;11.40;;;9.32;;
12145;SDS011;6136;47.032;15.398;2022-07-23T06:34:11;13.70;;;9.85;;
12145;SDS011;6136;47.032;15.398;2022-07-23T06:36:39;11.32;;;10.13;;
12145;SDS011;6136;47.032;15.398;2022-07-23T06:39:08;10.82;;;9.32;;
12145;SDS011;6136;47.032;15.398;2022-07-23T06:41:36;11.73;;;9.77;;
12145;SDS011;6136;47.032;15.398;2022-07-23T06:44:04;10.88;;;9.77;;
12145;SDS011;6136;47.032;15.398;2022-07-23T06:46:34;11.85;;;9.02;;
12145;SDS011;6136;47.032;15.398;2022-07-23T06:49:03;10.55;;;9.10;;
12145;SDS011;6136;47.032;15.398;2022-07-23T06:51:34;11.93;;;8.70;;
12145;SDS011;6136;47.032;15.398;2022-07-23T06:54:02;14.38;;;9.48;;
12145;SDS011;6136;47.032;15.398;2022-07-23T06:56:31;10.05;;;8.80;;
12145;SDS011;6136;47.032;15.398;2022-07-23T06:58:59;11.82;;;9.40;;
12145;SDS011;6136;47.032;15.398;2022-07-23T07:01:28;10.50;;;9.40;;
12145;SDS011;6136;47.032;15.398;2022-07-23T07:03:57;10.43;;;9.43;;
12145;SDS011;6136;47.032;15.398;2022-07-23T07:06:25;10.15;;;9.15;;
12145;SDS011;6136;47.032;15.398;2022-07-23T07:08:54;10.25;;;9.27;;
12145;SDS011;6136;47.032;15.398;2022-07-23T07:11:23;10.00;;;8.90;;
12145;SDS011;6136;47.032;15.398;2022-07-23T07:13:51;9.55;;;8.65;;
12145;SDS011;6136;47.032;15.398;2022-07-23T07:16:20;10.07;;;9.07;;
12145;SDS011;6136;47.032;15.398;2022-07-23T07:18:48;9.73;;;8.73;;
12145;SDS011;6136;47.032;15.398;2022-07-23T07:21:17;13.63;;;9.27;;
12145;SDS011;6136;47.032;15.398;2022-07-23T07:23:45;11.30;;;9.05;;
12145;SDS011;6136;47.032;15.398;2022-07-23T07:26:14;12.05;;;8.85;;
12145;SDS011;6136;47.032;15.398;2022-07-23T07:28:42;9.80;;;8.45;;
12145;SDS011;6136;47.032;15.398;2022-07-23T07:31:10;11.95;;;8.57;;
12145;SDS011;6136;47.032;15.398;2022-07-23T07:33:39;13.55;;;8.82;;
12145;SDS011;6136;47.032;15.398;2022-07-23T07:36:07;24.73;;;8.57;;
12145;SDS011;6136;47.032;15.398;2022-07-23T07:38:35;14.90;;;8.48;;
12145;SDS011;6136;47.032;15.398;2022-07-23T07:41:03;10.02;;;9.07;;
12145;SDS011;6136;47.032;15.398;2022-07-23T07:43:33;14.57;;;11.05;;
12145;SDS011;6136;47.032;15.398;2022-07-23T07:46:01;13.20;;;8.65;;
12145;SDS011;6136;47.032;15.398;2022-07-23T07:48:30;9.18;;;7.85;;
12145;SDS011;6136;47.032;15.398;2022-07-23T07:50:58;7.63;;;6.93;;
12145;SDS011;6136;47.032;15.398;2022-07-23T07:53:26;7.22;;;6.53;;
12145;SDS011;6136;47.032;15.398;2022-07-23T07:55:54;8.02;;;6.85;;
12145;SDS011;6136;47.032;15.398;2022-07-23T07:58:22;6.55;;;5.95;;
12145;SDS011;6136;47.032;15.398;2022-07-23T08:00:51;10.52;;;6.38;;
12145;SDS011;6136;47.032;15.398;2022-07-23T08:03:20;34.75;;;9.98;;
12145;SDS011;6136;47.032;15.398;2022-07-23T08:05:48;11.43;;;6.32;;
12145;SDS011;6136;47.032;15.398;2022-07-23T08:08:16;8.75;;;6.35;;
12145;SDS011;6136;47.032;15.398;2022-07-23T08:10:44;6.78;;;5.40;;
12145;SDS011;6136;47.032;15.398;2022-07-23T08:13:13;10.80;;;5.57;;
12145;SDS011;6136;47.032;15.398;2022-07-23T08:15:42;6.00;;;5.40;;
12145;SDS011;6136;47.032;15.398;2022-07-23T08:18:13;13.10;;;4.80;;
12145;SDS011;6136;47.032;15.398;2022-07-23T08:20:41;7.05;;;4.07;;
12145;SDS011;6136;47.032;15.398;2022-07-23T08:23:09;4.53;;;4.13;;
12145;SDS011;6136;47.032;15.398;2022-07-23T08:25:39;3.85;;;3.55;;
12145;SDS011;6136;47.032;15.398;2022-07-23T08:28:08;4.32;;;3.92;;
12145;SDS011;6136;47.032;15.398;2022-07-23T08:30:39;10.18;;;4.00;;
12145;SDS011;6136;47.032;15.398;2022-07-23T08:33:08;4.15;;;3.75;;
12145;SDS011;6136;47.032;15.398;2022-07-23T08:35:47;4.05;;;3.67;;
12145;SDS011;6136;47.032;15.398;2022-07-23T08:38:17;4.25;;;3.83;;
12145;SDS011;6136;47.032;15.398;2022-07-23T08:40:47;4.45;;;4.05;;
12145;SDS011;6136;47.032;15.398;2022-07-23T08:43:18;4.32;;;3.95;;
12145;SDS011;6136;47.032;15.398;2022-07-23T08:45:48;4.72;;;4.22;;
12145;SDS011;6136;47.032;15.398;2022-07-23T08:48:18;5.30;;;3.80;;
12145;SDS011;6136;47.032;15.398;2022-07-23T08:50:50;4.70;;;4.30;;
12145;SDS011;6136;47.032;15.398;2022-07-23T08:53:21;4.32;;;3.90;;
12145;SDS011;6136;47.032;15.398;2022-07-23T08:55:51;4.43;;;4.10;;
12145;SDS011;6136;47.032;15.398;2022-07-23T08:58:21;4.50;;;4.10;;
12145;SDS011;6136;47.032;15.398;2022-07-23T09:00:53;4.30;;;3.95;;
12145;SDS011;6136;47.032;15.398;2022-07-23T09:03:24;5.45;;;4.65;;
12145;SDS011;6136;47.032;15.398;2022-07-23T09:05:55;6.50;;;4.72;;
12145;SDS011;6136;47.032;15.398;2022-07-23T09:08:26;5.00;;;4.45;;
12145;SDS011;6136;47.032;15.398;2022-07-23T09:11:03;5.00;;;4.60;;
12145;SDS011;6136;47.032;15.398;2022-07-23T09:13:33;9.88;;;4.20;;
12145;SDS011;6136;47.032;15.398;2022-07-23T09:16:05;5.28;;;4.20;;
12145;SDS011;6136;47.032;15.398;2022-07-23T09:18:39;5.10;;;4.60;;
12145;SDS011;6136;47.032;15.398;2022-07-23T09:21:14;5.22;;;4.68;;
12145;SDS011;6136;47.032;15.398;2022-07-23T09:23:48;6.38;;;4.55;;
12145;SDS011;6136;47.032;15.398;2022-07-23T09:26:19;5.22;;;4.72;;
12145;SDS011;6136;47.032;15.398;2022-07-23T09:28:52;5.70;;;5.20;;
12145;SDS011;6136;47.032;15.398;2022-07-23T09:31:22;4.85;;;4.35;;
12145;SDS011;6136;47.032;15.398;2022-07-23T09:33:50;4.85;;;4.45;;
12145;SDS011;6136;47.032;15.398;2022-07-23T09:36:28;5.05;;;4.65;;
12145;SDS011;6136;47.032;15.398;2022-07-23T09:38:57;5.00;;;4.60;;
12145;SDS011;6136;47.032;15.398;2022-07-23T09:41:25;5.20;;;4.65;;
12145;SDS011;6136;47.032;15.398;2022-07-23T09:44:06;4.82;;;4.43;;
12145;SDS011;6136;47.032;15.398;2022-07-23T09:46:39;4.47;;;4.07;;
12145;SDS011;6136;47.032;15.398;2022-07-23T09:49:12;4.97;;;4.47;;
12145;SDS011;6136;47.032;15.398;2022-07-23T09:51:47;6.07;;;4.63;;
12145;SDS011;6136;47.032;15.398;2022-07-23T09:54:25;5.07;;;4.57;;
12145;SDS011;6136;47.032;15.398;2022-07-23T09:56:57;5.00;;;4.50;;
12145;SDS011;6136;47.032;15.398;2022-07-23T09:59:27;4.45;;;4.05;;
12145;SDS011;6136;47.032;15.398;2022-07-23T10:01:56;4.80;;;4.40;;
12145;SDS011;6136;47.032;15.398;2022-07-23T10:04:28;4.72;;;3.88;;
12145;SDS011;6136;47.032;15.398;2022-07-23T10:07:19;4.15;;;3.45;;
12145;SDS011;6136;47.032;15.398;2022-07-23T10:10:22;4.75;;;4.35;;
12145;SDS011;6136;47.032;15.398;2022-07-23T10:12:56;4.13;;;3.83;;
12145;SDS011;6136;47.032;15.398;2022-07-23T10:15:53;4.93;;;4.53;;
12145;SDS011;6136;47.032;15.398;2022-07-23T10:18:21;4.65;;;4.25;;
12145;SDS011;6136;47.032;15.398;2022-07-23T10:20:50;4.50;;;4.10;;
12145;SDS011;6136;47.032;15.398;2022-07-23T10:23:22;4.25;;;3.95;;
12145;SDS011;6136;47.032;15.398;2022-07-23T10:25:59;5.28;;;4.43;;
12145;SDS011;6136;47.032;15.398;2022-07-23T10:28:56;5.03;;;4.53;;
12145;SDS011;6136;47.032;15.398;2022-07-23T10:31:40;4.88;;;4.40;;
12145;SDS011;6136;47.032;15.398;2022-07-23T10:34:25;4.88;;;4.47;;
12145;SDS011;6136;47.032;15.398;2022-07-23T10:37:07;4.55;;;4.15;;
12145;SDS011;6136;47.032;15.398;2022-07-23T10:39:44;5.85;;;4.75;;
12145;SDS011;6136;47.032;15.398;2022-07-23T10:42:13;4.72;;;4.32;;
12145;SDS011;6136;47.032;15.398;2022-07-23T10:44:43;5.85;;;5.28;;
12145;SDS011;6136;47.032;15.398;2022-07-23T10:47:13;6.10;;;5.50;;
12145;SDS011;6136;47.032;15.398;2022-07-23T10:50:16;6.95;;;5.63;;
12145;SDS011;6136;47.032;15.398;2022-07-23T10:55:43;6.50;;;5.90;;
12145;SDS011;6136;47.032;15.398;2022-07-23T10:58:17;21.33;;;19.10;;
12145;SDS011;6136;47.032;15.398;2022-07-23T11:00:47;13.90;;;8.38;;
12145;SDS011;6136;47.032;15.398;2022-07-23T11:06:02;7.93;;;6.78;;
12145;SDS011;6136;47.032;15.398;2022-07-23T11:08:32;8.15;;;6.35;;
12145;SDS011;6136;47.032;15.398;2022-07-23T11:11:11;6.13;;;5.63;;
12145;SDS011;6136;47.032;15.398;2022-07-23T11:13:44;6.32;;;5.40;;
12145;SDS011;6136;47.032;15.398;2022-07-23T11:16:20;6.57;;;5.97;;
12145;SDS011;6136;47.032;15.398;2022-07-23T11:21:41;6.22;;;5.28;;
12145;SDS011;6136;47.032;15.398;2022-07-23T11:24:20;6.50;;;5.95;;
12145;SDS011;6136;47.032;15.398;2022-07-23T11:26:55;6.95;;;6.03;;
12145;SDS011;6136;47.032;15.398;2022-07-23T11:32:28;6.57;;;6.07;;
12145;SDS011;6136;47.032;15.398;2022-07-23T11:35:00;6.55;;;5.95;;
12145;SDS011;6136;47.032;15.398;2022-07-23T11:37:32;6.82;;;6.22;;
12145;SDS011;6136;47.032;15.398;2022-07-23T11:40:03;6.60;;;6.07;;
12145;SDS011;6136;47.032;15.398;2022-07-23T11:42:36;6.95;;;6.20;;
12145;SDS011;6136;47.032;15.398;2022-07-23T11:45:06;7.20;;;6.53;;
12145;SDS011;6136;47.032;15.398;2022-07-23T11:47:36;6.22;;;5.72;;
12145;SDS011;6136;47.032;15.398;2022-07-23T11:50:05;8.18;;;6.00;;
12145;SDS011;6136;47.032;15.398;2022-07-23T11:52:34;7.18;;;6.47;;
12145;SDS011;6136;47.032;15.398;2022-07-23T11:55:03;6.90;;;6.30;;
12145;SDS011;6136;47.032;15.398;2022-07-23T11:57:34;6.50;;;6.00;;
12145;SDS011;6136;47.032;15.398;2022-07-23T12:00:05;7.07;;;6.38;;
12145;SDS011;6136;47.032;15.398;2022-07-23T12:02:39;7.32;;;5.45;;
12145;SDS011;6136;47.032;15.398;2022-07-23T12:05:10;6.60;;;5.95;;
12145;SDS011;6136;47.032;15.398;2022-07-23T12:07:40;7.43;;;5.82;;
12145;SDS011;6136;47.032;15.398;2022-07-23T12:10:11;6.38;;;5.88;;
12145;SDS011;6136;47.032;15.398;2022-07-23T12:12:43;6.30;;;5.80;;
12145;SDS011;6136;47.032;15.398;2022-07-23T12:15:14;6.28;;;5.78;;
12145;SDS011;6136;47.032;15.398;2022-07-23T12:17:44;6.60;;;6.00;;
12145;SDS011;6136;47.032;15.398;2022-07-23T12:20:17;8.07;;;6.35;;
12145;SDS011;6136;47.032;15.398;2022-07-23T12:22:48;15.95;;;6.57;;
12145;SDS011;6136;47.032;15.398;2022-07-23T12:25:18;6.53;;;5.93;;
12145;SDS011;6136;47.032;15.398;2022-07-23T12:27:57;7.03;;;6.00;;
12145;SDS011;6136;47.032;15.398;2022-07-23T12:30:29;6.05;;;5.57;;
12145;SDS011;6136;47.032;15.398;2022-07-23T12:33:00;6.30;;;5.80;;
12145;SDS011;6136;47.032;15.398;2022-07-23T12:35:30;6.05;;;5.55;;
12145;SDS011;6136;47.032;15.398;2022-07-23T12:38:01;6.50;;;6.00;;
12145;SDS011;6136;47.032;15.398;2022-07-23T12:40:32;5.97;;;5.38;;
12145;SDS011;6136;47.032;15.398;2022-07-23T12:43:03;6.32;;;5.72;;
12145;SDS011;6136;47.032;15.398;2022-07-23T12:45:45;6.20;;;5.60;;
12145;SDS011;6136;47.032;15.398;2022-07-23T12:48:16;5.88;;;5.40;;
12145;SDS011;6136;47.032;15.398;2022-07-23T12:50:57;7.22;;;6.55;;
12145;SDS011;6136;47.032;15.398;2022-07-23T12:53:27;6.50;;;5.90;;
12145;SDS011;6136;47.032;15.398;2022-07-23T12:55:58;6.60;;;6.10;;
12145;SDS011;6136;47.032;15.398;2022-07-23T12:58:40;7.25;;;6.20;;
12145;SDS011;6136;47.032;15.398;2022-07-23T13:01:21;7.03;;;5.97;;
12145;SDS011;6136;47.032;15.398;2022-07-23T13:03:57;6.30;;;5.80;;
12145;SDS011;6136;47.032;15.398;2022-07-23T13:06:28;7.07;;;6.50;;
12145;SDS011;6136;47.032;15.398;2022-07-23T13:08:57;6.93;;;5.90;;
12145;SDS011;6136;47.032;15.398;2022-07-23T13:11:26;5.93;;;5.53;;
12145;SDS011;6136;47.032;15.398;2022-07-23T13:13:54;6.00;;;5.53;;
12145;SDS011;6136;47.032;15.398;2022-07-23T13:16:23;6.53;;;5.97;;
12145;SDS011;6136;47.032;15.398;2022-07-23T13:18:53;6.88;;;6.38;;
12145;SDS011;6136;47.032;15.398;2022-07-23T13:21:22;6.88;;;6.18;;
12145;SDS011;6136;47.032;15.398;2022-07-23T13:23:50;6.70;;;6.20;;
12145;SDS011;6136;47.032;15.398;2022-07-23T13:26:19;6.57;;;5.97;;
12145;SDS011;6136;47.032;15.398;2022-07-23T13:28:47;6.63;;;6.03;;
12145;SDS011;6136;47.032;15.398;2022-07-23T13:31:17;8.90;;;6.38;;
12145;SDS011;6136;47.032;15.398;2022-07-23T13:33:46;7.00;;;6.40;;
12145;SDS011;6136;47.032;15.398;2022-07-23T13:36:15;7.70;;;7.00;;
12145;SDS011;6136;47.032;15.398;2022-07-23T13:38:43;6.15;;;5.65;;
12145;SDS011;6136;47.032;15.398;2022-07-23T13:41:11;7.47;;;6.80;;
12145;SDS011;6136;47.032;15.398;2022-07-23T13:43:39;6.25;;;5.75;;
12145;SDS011;6136;47.032;15.398;2022-07-23T13:46:07;6.22;;;5.72;;
12145;SDS011;6136;47.032;15.398;2022-07-23T13:48:36;6.88;;;6.28;;
12145;SDS011;6136;47.032;15.398;2022-07-23T13:51:05;6.57;;;5.97;;
12145;SDS011;6136;47.032;15.398;2022-07-23T13:53:36;6.30;;;5.70;;
12145;SDS011;6136;47.032;15.398;2022-07-23T13:56:05;6.50;;;5.93;;
12145;SDS011;6136;47.032;15.398;2022-07-23T13:58:33;6.30;;;5.80;;
12145;SDS011;6136;47.032;15.398;2022-07-23T14:01:01;6.32;;;5.78;;
12145;SDS011;6136;47.032;15.398;2022-07-23T14:03:29;6.30;;;5.80;;
12145;SDS011;6136;47.032;15.398;2022-07-23T14:05:57;6.65;;;6.05;;
12145;SDS011;6136;47.032;15.398;2022-07-23T14:08:27;5.88;;;5.38;;
12145;SDS011;6136;47.032;15.398;2022-07-23T14:10:56;6.43;;;5.93;;
12145;SDS011;6136;47.032;15.398;2022-07-23T14:13:24;7.05;;;6.45;;
12145;SDS011;6136;47.032;15.398;2022-07-23T14:15:52;7.00;;;6.30;;
12145;SDS011;6136;47.032;15.398;2022-07-23T14:18:21;6.43;;;5.93;;
12145;SDS011;6136;47.032;15.398;2022-07-23T14:20:49;6.45;;;5.85;;
12145;SDS011;6136;47.032;15.398;2022-07-23T14:23:17;5.97;;;5.47;;
12145;SDS011;6136;47.032;15.398;2022-07-23T14:25:46;7.05;;;6.35;;
12145;SDS011;6136;47.032;15.398;2022-07-23T14:28:14;7.07;;;6.47;;
12145;SDS011;6136;47.032;15.398;2022-07-23T14:30:42;6.78;;;6.18;;
12145;SDS011;6136;47.032;15.398;2022-07-23T14:33:11;6.32;;;5.82;;
12145;SDS011;6136;47.032;15.398;2022-07-23T14:35:41;6.18;;;5.60;;
12145;SDS011;6136;47.032;15.398;2022-07-23T14:38:09;6.82;;;6.15;;
12145;SDS011;6136;47.032;15.398;2022-07-23T14:40:39;6.57;;;5.97;;
12145;SDS011;6136;47.032;15.398;2022-07-23T14:43:09;7.47;;;6.38;;
12145;SDS011;6136;47.032;15.398;2022-07-23T14:45:37;5.95;;;5.45;;
12145;SDS011;6136;47.032;15.398;2022-07-23T14:48:05;6.57;;;6.05;;
12145;SDS011;6136;47.032;15.398;2022-07-23T14:50:34;6.80;;;6.20;;
12145;SDS011;6136;47.032;15.398;2022-07-23T14:53:02;7.18;;;6.53;;
12145;SDS011;6136;47.032;15.398;2022-07-23T14:55:30;7.18;;;6.47;;
12145;SDS011;6136;47.032;15.398;2022-07-23T14:57:58;6.65;;;5.72;;
12145;SDS011;6136;47.032;15.398;2022-07-23T15:00:28;6.07;;;5.57;;
12145;SDS011;6136;47.032;15.398;2022-07-23T15:02:56;6.43;;;5.93;;
12145;SDS011;6136;47.032;15.398;2022-07-23T15:05:24;6.88;;;6.05;;
12145;SDS011;6136;47.032;15.398;2022-07-23T15:07:52;5.68;;;5.18;;
12145;SDS011;6136;47.032;15.398;2022-07-23T15:10:21;6.32;;;5.82;;
12145;SDS011;6136;47.032;15.398;2022-07-23T15:12:49;6.88;;;6.28;;